createdAt,value
2023-07-02T00:00:43.771Z,24.50
2023-07-02T00:03:11.911Z,24.50
2023-07-02T00:05:41.283Z,24.40
2023-07-02T00:08:09.285Z,24.60
2023-07-02T00:10:37.415Z,24.80
2023-07-02T00:13:05.406Z,24.50
2023-07-02T00:15:33.340Z,24.40
2023-07-02T00:18:01.581Z,24.50
2023-07-02T00:20:31.121Z,24.80
2023-07-02T00:23:01.427Z,24.70
2023-07-02T00:25:29.368Z,24.50
2023-07-02T00:27:57.407Z,24.50
2023-07-02T00:30:25.575Z,24.60
2023-07-02T00:32:53.621Z,24.80
2023-07-02T00:35:21.846Z,24.30
2023-07-02T00:37:51.106Z,24.90
2023-07-02T00:40:20.397Z,24.70
2023-07-02T00:42:48.337Z,24.50
2023-07-02T00:45:16.394Z,24.90
2023-07-02T00:47:44.867Z,24.30
2023-07-02T00:50:13.783Z,24.50
2023-07-02T00:52:42.072Z,24.30
2023-07-02T00:55:11.282Z,24.50
2023-07-02T00:57:41.857Z,24.80
2023-07-02T01:00:11.262Z,24.30
2023-07-02T01:02:39.388Z,24.50
2023-07-02T01:05:07.998Z,24.50
2023-07-02T01:07:36.093Z,24.70
2023-07-02T01:10:04.420Z,24.60
2023-07-02T01:12:32.621Z,24.30
2023-07-02T01:15:05.602Z,24.60
2023-07-02T01:17:40.909Z,24.40
2023-07-02T01:20:13.027Z,24.40
2023-07-02T01:22:41.385Z,24.60
2023-07-02T01:25:10.681Z,24.30
2023-07-02T01:27:39.418Z,24.50
2023-07-02T01:30:09.953Z,24.40
2023-07-02T01:32:39.435Z,24.70
2023-07-02T01:35:09.970Z,24.40
2023-07-02T01:37:39.531Z,24.20
2023-07-02T01:40:09.441Z,24.40
2023-07-02T01:42:37.494Z,24.50
2023-07-02T01:45:06.804Z,24.30
2023-07-02T01:47:34.833Z,24.40
2023-07-02T01:50:05.369Z,24.30
2023-07-02T01:52:34.786Z,24.40
2023-07-02T01:55:03.595Z,24.30
2023-07-02T01:57:32.346Z,24.30
2023-07-02T02:00:00.356Z,24.50
2023-07-02T02:02:28.486Z,24.50
2023-07-02T02:04:57.623Z,24.60
2023-07-02T02:07:26.847Z,24.30
2023-07-02T02:09:56.189Z,24.40
2023-07-02T02:12:24.158Z,24.50
2023-07-02T02:14:52.115Z,24.30
2023-07-02T02:17:20.114Z,24.70
2023-07-02T02:19:48.094Z,24.60
2023-07-02T02:22:16.122Z,24.20
2023-07-02T02:24:44.184Z,24.30
2023-07-02T02:27:13.474Z,24.40
2023-07-02T02:29:41.469Z,24.30
2023-07-02T02:32:09.614Z,24.30
2023-07-02T02:34:37.565Z,24.80
2023-07-02T02:37:05.834Z,24.50
2023-07-02T02:39:33.815Z,24.40
2023-07-02T02:42:01.865Z,24.40
2023-07-02T02:44:33.313Z,24.20
2023-07-02T02:47:01.734Z,24.40
2023-07-02T02:49:29.811Z,24.60
2023-07-02T02:51:57.913Z,24.30
2023-07-02T02:54:25.888Z,24.60
2023-07-02T02:56:53.851Z,24.70
2023-07-02T02:59:21.802Z,24.50
2023-07-02T03:01:52.447Z,24.30
2023-07-02T03:04:24.847Z,24.40
2023-07-02T03:06:54.540Z,24.30
2023-07-02T03:09:22.571Z,24.30
2023-07-02T03:11:50.807Z,24.20
2023-07-02T03:14:19.087Z,24.70
2023-07-02T03:16:47.337Z,24.40
2023-07-02T03:19:16.960Z,24.50
2023-07-02T03:21:45.425Z,24.70
2023-07-02T03:24:14.262Z,24.30
2023-07-02T03:26:42.453Z,24.30
2023-07-02T03:29:10.737Z,24.30
2023-07-02T03:31:38.976Z,24.70
2023-07-02T03:34:10.788Z,24.60
2023-07-02T03:36:40.315Z,24.30
2023-07-02T03:39:10.610Z,24.30
2023-07-02T03:41:39.209Z,24.20
2023-07-02T03:44:07.415Z,24.50
2023-07-02T03:46:35.740Z,24.40
2023-07-02T03:49:04.963Z,24.40
2023-07-02T03:51:33.342Z,24.50
2023-07-02T03:54:02.745Z,24.60
2023-07-02T03:56:30.712Z,24.40
2023-07-02T03:58:58.776Z,24.30
2023-07-02T04:01:26.739Z,24.20
2023-07-02T04:03:56.307Z,24.50
2023-07-02T04:06:24.534Z,24.40
2023-07-02T04:08:52.594Z,24.50
2023-07-02T04:11:22.004Z,24.40
2023-07-02T04:13:50.008Z,24.30
2023-07-02T04:16:18.066Z,24.10
2023-07-02T04:18:46.070Z,24.40
2023-07-02T04:21:14.077Z,24.40
2023-07-02T04:23:42.070Z,24.30
2023-07-02T04:26:20.319Z,24.60
2023-07-02T04:29:00.966Z,24.50
2023-07-02T04:31:29.025Z,24.40
2023-07-02T04:33:57.035Z,24.20
2023-07-02T04:36:25.035Z,24.30
2023-07-02T04:38:53.003Z,24.50
2023-07-02T04:41:21.500Z,24.60
2023-07-02T04:43:49.527Z,24.30
2023-07-02T04:46:19.499Z,24.30
2023-07-02T04:48:47.819Z,24.60
2023-07-02T04:51:16.381Z,24.50
2023-07-02T04:53:44.386Z,24.40
2023-07-02T04:56:12.430Z,24.50
2023-07-02T04:58:40.437Z,24.50
2023-07-02T05:01:08.431Z,24.50
2023-07-02T05:03:40.148Z,24.70
2023-07-02T05:06:08.184Z,24.50
2023-07-02T05:08:37.413Z,24.50
2023-07-02T05:11:05.505Z,24.40
2023-07-02T05:13:33.512Z,24.70
2023-07-02T05:16:01.502Z,24.60
2023-07-02T05:18:29.512Z,24.30
2023-07-02T05:20:58.858Z,24.50
2023-07-02T05:23:26.912Z,24.40
2023-07-02T05:25:54.887Z,24.70
2023-07-02T05:28:22.854Z,24.50
2023-07-02T05:30:51.005Z,24.30
2023-07-02T05:33:19.815Z,24.60
2023-07-02T05:35:47.972Z,24.40
2023-07-02T05:38:18.186Z,24.40
2023-07-02T05:40:46.571Z,24.50
2023-07-02T05:43:14.685Z,24.80
2023-07-02T05:45:42.640Z,24.60
2023-07-02T05:48:10.747Z,24.80
2023-07-02T05:50:39.134Z,24.50
2023-07-02T05:53:07.109Z,24.90
2023-07-02T05:55:37.383Z,24.80
2023-07-02T05:58:07.171Z,24.50
2023-07-02T06:00:35.184Z,24.70
2023-07-02T06:03:03.213Z,24.60
2023-07-02T06:05:31.356Z,24.50
2023-07-02T06:07:59.410Z,24.80
2023-07-02T06:10:27.387Z,24.40
2023-07-02T06:12:56.699Z,24.80
2023-07-02T06:15:24.916Z,24.50
2023-07-02T06:17:52.894Z,24.50
2023-07-02T06:20:21.016Z,24.60
2023-07-02T06:22:48.979Z,24.60
2023-07-02T06:25:17.051Z,24.90
2023-07-02T06:27:45.023Z,25.10
2023-07-02T06:30:14.741Z,24.90
2023-07-02T06:32:42.791Z,24.60
2023-07-02T06:35:11.017Z,25.10
2023-07-02T06:37:39.127Z,24.50
2023-07-02T06:40:09.198Z,24.80
2023-07-02T06:42:37.853Z,24.80
2023-07-02T06:45:07.638Z,24.50
2023-07-02T06:47:36.994Z,24.50
2023-07-02T06:50:05.677Z,24.80
2023-07-02T06:52:34.008Z,24.80
2023-07-02T06:55:01.986Z,24.80
2023-07-02T06:57:30.114Z,24.50
2023-07-02T07:00:01.165Z,24.60
2023-07-02T07:02:29.695Z,24.50
2023-07-02T07:04:59.131Z,24.40
2023-07-02T07:07:27.161Z,24.50
2023-07-02T07:09:55.151Z,24.40
2023-07-02T07:12:23.160Z,24.70
2023-07-02T07:14:51.217Z,24.50
2023-07-02T07:17:19.315Z,24.40
2023-07-02T07:19:47.281Z,24.50
2023-07-02T07:22:16.565Z,24.80
2023-07-02T07:24:44.728Z,24.50
2023-07-02T07:27:12.691Z,24.70
2023-07-02T07:29:40.641Z,24.60
2023-07-02T07:32:09.473Z,24.80
2023-07-02T07:34:37.475Z,24.70
2023-07-02T07:37:06.866Z,24.40
2023-07-02T07:39:38.923Z,24.60
2023-07-02T07:42:08.317Z,24.50
2023-07-02T07:44:36.298Z,24.50
2023-07-02T07:47:04.599Z,24.80
2023-07-02T07:49:32.570Z,24.70
2023-07-02T07:52:00.582Z,24.40
2023-07-02T07:54:28.533Z,24.70
2023-07-02T07:56:57.871Z,24.20
2023-07-02T07:59:25.821Z,24.40
2023-07-02T08:01:53.794Z,24.60
2023-07-02T08:04:21.801Z,24.20
2023-07-02T08:06:49.792Z,24.30
2023-07-02T08:09:17.754Z,24.30
2023-07-02T08:11:45.728Z,24.30
2023-07-02T08:14:15.338Z,24.30
2023-07-02T08:16:43.430Z,24.30
2023-07-02T08:19:11.411Z,24.40
2023-07-02T08:21:39.385Z,24.50
2023-07-02T08:24:08.067Z,24.20
2023-07-02T08:26:36.080Z,24.60
2023-07-02T08:29:04.120Z,24.20
2023-07-02T08:31:33.495Z,24.40
2023-07-02T08:34:01.487Z,24.40
2023-07-02T08:36:29.466Z,24.30
2023-07-02T08:38:57.436Z,24.50
2023-07-02T08:41:25.539Z,24.50
2023-07-02T08:43:57.844Z,24.60
2023-07-02T08:46:26.207Z,24.20
2023-07-02T08:48:55.587Z,24.60
2023-07-02T08:51:24.045Z,24.30
2023-07-02T08:53:52.581Z,24.40
2023-07-02T08:56:20.762Z,24.70
2023-07-02T08:58:50.237Z,24.60
2023-07-02T09:01:18.327Z,24.40
2023-07-02T09:03:46.525Z,24.60
2023-07-02T09:06:19.486Z,24.40
2023-07-02T09:08:47.570Z,24.60
2023-07-02T09:11:17.896Z,24.30
2023-07-02T09:13:48.413Z,24.40
2023-07-02T09:16:29.148Z,24.40
2023-07-02T09:19:04.131Z,24.30
2023-07-02T09:21:45.740Z,24.50
2023-07-02T09:24:17.844Z,24.40
2023-07-02T09:26:47.107Z,24.50
2023-07-02T09:29:15.799Z,24.30
2023-07-02T09:32:03.876Z,24.50
2023-07-02T09:34:38.467Z,24.60
2023-07-02T09:37:08.439Z,24.50
2023-07-02T09:39:39.609Z,24.80
2023-07-02T09:42:09.130Z,24.70
2023-07-02T09:44:37.861Z,24.60
2023-07-02T09:47:08.172Z,24.60
2023-07-02T09:49:37.805Z,24.30
2023-07-02T09:52:09.559Z,24.70
2023-07-02T09:54:38.758Z,24.50
2023-07-02T09:57:08.147Z,24.40
2023-07-02T09:59:37.650Z,24.20
2023-07-02T10:02:06.268Z,24.00
2023-07-02T10:04:43.233Z,23.90
2023-07-02T10:07:13.249Z,24.10
2023-07-02T10:09:44.719Z,23.80
2023-07-02T10:12:20.646Z,24.10
2023-07-02T10:14:50.507Z,24.20
2023-07-02T10:17:30.071Z,24.20
2023-07-02T10:19:59.982Z,24.40
2023-07-02T10:22:29.841Z,24.50
2023-07-02T10:25:01.552Z,24.80
2023-07-02T10:27:38.051Z,24.60
2023-07-02T10:30:08.610Z,24.70
2023-07-02T10:32:39.115Z,24.60
2023-07-02T10:35:16.691Z,24.70
2023-07-02T10:37:46.733Z,24.80
2023-07-02T10:40:15.563Z,25.20
2023-07-02T10:42:51.789Z,25.00
2023-07-02T10:45:21.138Z,25.00
2023-07-02T10:47:49.198Z,25.10
2023-07-02T10:50:19.042Z,25.30
2023-07-02T10:52:48.957Z,24.90
2023-07-02T10:55:20.797Z,25.10
2023-07-02T10:57:51.856Z,24.80
2023-07-02T11:00:21.188Z,24.80
2023-07-02T11:02:51.066Z,25.00
2023-07-02T11:05:19.113Z,25.10
2023-07-02T11:07:48.670Z,25.30
2023-07-02T11:10:21.163Z,25.10
2023-07-02T11:12:49.171Z,25.30
2023-07-02T11:15:19.047Z,25.20
2023-07-02T11:17:47.557Z,25.20
2023-07-02T11:20:16.881Z,25.10
2023-07-02T11:22:44.896Z,25.00
2023-07-02T11:25:17.531Z,25.00
2023-07-02T11:27:46.098Z,25.10
2023-07-02T11:30:15.091Z,25.20
2023-07-02T11:32:50.947Z,25.00
2023-07-02T11:35:19.701Z,25.20
2023-07-02T11:37:49.594Z,25.20
2023-07-02T11:40:20.466Z,25.30
2023-07-02T11:42:48.531Z,25.20
2023-07-02T11:45:16.583Z,25.70
2023-07-02T11:47:44.735Z,25.40
2023-07-02T11:50:25.445Z,25.40
2023-07-02T11:52:55.020Z,25.40
2023-07-02T11:55:24.642Z,25.00
2023-07-02T11:57:52.688Z,25.60
2023-07-02T12:00:21.223Z,25.40
2023-07-02T12:02:50.228Z,25.60
2023-07-02T12:05:18.288Z,25.40
2023-07-02T12:07:46.337Z,25.40
2023-07-02T12:10:14.341Z,25.10
2023-07-02T12:12:43.713Z,24.90
2023-07-02T12:15:12.269Z,25.40
2023-07-02T12:17:40.222Z,25.40
2023-07-02T12:20:09.399Z,25.10
2023-07-02T12:22:37.421Z,25.30
2023-07-02T12:25:06.721Z,25.10
2023-07-02T12:27:34.693Z,25.40
2023-07-02T12:30:04.477Z,25.50
2023-07-02T12:32:32.524Z,25.30
2023-07-02T12:35:00.486Z,25.50
2023-07-02T12:37:28.410Z,25.50
2023-07-02T12:39:56.421Z,25.30
2023-07-02T12:42:24.370Z,25.50
2023-07-02T12:44:52.462Z,25.70
2023-07-02T12:47:21.868Z,25.40
2023-07-02T12:49:49.875Z,25.30
2023-07-02T12:52:17.857Z,25.40
2023-07-02T12:54:45.844Z,25.40
2023-07-02T12:57:13.863Z,25.40
2023-07-02T12:59:41.912Z,25.40
2023-07-02T13:02:11.630Z,25.60
2023-07-02T13:04:41.437Z,25.30
2023-07-02T13:07:09.526Z,25.10
2023-07-02T13:09:37.524Z,25.30
2023-07-02T13:12:06.679Z,25.20
2023-07-02T13:14:35.924Z,25.40
2023-07-02T13:17:06.282Z,25.20
2023-07-02T13:19:34.468Z,25.60
2023-07-02T13:22:04.429Z,25.30
2023-07-02T13:24:36.522Z,25.30
2023-07-02T13:27:11.436Z,25.60
2023-07-02T13:29:39.380Z,25.40
2023-07-02T13:32:09.504Z,25.20
2023-07-02T13:34:37.480Z,25.50
2023-07-02T13:37:07.171Z,25.50
2023-07-02T13:39:35.144Z,25.60
2023-07-02T13:42:03.135Z,25.30
2023-07-02T13:44:31.252Z,25.70
2023-07-02T13:46:59.242Z,25.50
2023-07-02T13:49:27.217Z,25.40
2023-07-02T13:51:55.181Z,25.50
2023-07-02T13:54:24.488Z,25.40
2023-07-02T13:56:53.143Z,25.50
2023-07-02T13:59:22.678Z,25.70
2023-07-02T14:01:51.634Z,25.70
2023-07-02T14:04:20.399Z,25.30
2023-07-02T14:06:48.418Z,25.50
2023-07-02T14:09:16.574Z,25.70
2023-07-02T14:11:45.218Z,25.60
2023-07-02T14:14:13.313Z,25.70
2023-07-02T14:16:42.923Z,25.70
2023-07-02T14:19:11.006Z,25.80
2023-07-02T14:21:38.993Z,25.50
2023-07-02T14:24:07.556Z,25.70
2023-07-02T14:26:35.578Z,25.80
2023-07-02T14:29:03.675Z,25.80
2023-07-02T14:31:31.872Z,25.70
2023-07-02T14:34:01.286Z,25.50
2023-07-02T14:36:29.271Z,25.70
2023-07-02T14:38:57.240Z,25.50
2023-07-02T14:41:25.233Z,25.20
2023-07-02T14:43:53.280Z,25.70
2023-07-02T14:46:23.239Z,25.70
2023-07-02T14:48:51.316Z,25.80
2023-07-02T14:51:20.926Z,25.70
2023-07-02T14:53:48.947Z,25.70
2023-07-02T14:56:16.964Z,25.60
2023-07-02T14:58:44.986Z,25.80
2023-07-02T15:01:12.989Z,25.80
2023-07-02T15:03:41.142Z,25.90
2023-07-02T15:06:12.106Z,25.50
2023-07-02T15:08:42.050Z,25.80
2023-07-02T15:11:11.410Z,25.80
2023-07-02T15:13:41.887Z,25.50
2023-07-02T15:16:11.208Z,25.40
2023-07-02T15:18:39.266Z,25.90
2023-07-02T15:21:07.251Z,25.60
2023-07-02T15:23:35.665Z,25.80
2023-07-02T15:26:07.220Z,25.60
2023-07-02T15:28:37.152Z,25.80
2023-07-02T15:31:08.956Z,25.60
2023-07-02T15:33:37.041Z,25.70
2023-07-02T15:36:07.870Z,25.80
2023-07-02T15:38:35.808Z,25.60
2023-07-02T15:41:12.487Z,25.70
2023-07-02T15:43:41.433Z,25.40
2023-07-02T15:46:10.412Z,25.60
2023-07-02T15:48:38.548Z,25.40
2023-07-02T15:51:08.693Z,25.40
2023-07-02T15:53:39.123Z,25.60
2023-07-02T15:56:08.654Z,25.50
2023-07-02T15:58:36.656Z,25.50
2023-07-02T16:01:14.053Z,25.70
2023-07-02T16:03:42.391Z,25.60
2023-07-02T16:06:11.952Z,25.30
2023-07-02T16:08:40.741Z,25.50
2023-07-02T16:11:11.623Z,25.60
2023-07-02T16:13:40.499Z,25.50
2023-07-02T16:16:09.079Z,25.70
2023-07-02T16:18:37.246Z,25.50
2023-07-02T16:21:06.252Z,25.60
2023-07-02T16:23:35.044Z,25.80
2023-07-02T16:26:06.403Z,25.80
2023-07-02T16:28:38.617Z,25.60
2023-07-02T16:31:09.143Z,25.80
2023-07-02T16:33:38.252Z,25.50
2023-07-02T16:36:09.631Z,25.40
2023-07-02T16:38:37.928Z,25.70
2023-07-02T16:41:07.620Z,25.60
2023-07-02T16:43:37.666Z,25.70
2023-07-02T16:46:06.430Z,25.50
2023-07-02T16:48:34.545Z,25.40
2023-07-02T16:51:06.426Z,25.60
2023-07-02T16:53:35.932Z,25.60
2023-07-02T16:56:06.785Z,25.50
2023-07-02T16:58:36.151Z,25.70
2023-07-02T17:01:07.121Z,25.70
2023-07-02T17:03:35.330Z,25.20
2023-07-02T17:06:07.156Z,25.70
2023-07-02T17:08:37.976Z,25.50
2023-07-02T17:11:06.979Z,25.30
2023-07-02T17:13:36.561Z,25.50
2023-07-02T17:16:06.943Z,25.70
2023-07-02T17:18:35.693Z,25.40
2023-07-02T17:21:04.571Z,25.30
2023-07-02T17:23:33.012Z,25.40
2023-07-02T17:26:07.159Z,25.40
2023-07-02T17:28:36.614Z,25.50
2023-07-02T17:31:04.648Z,25.40
2023-07-02T17:33:32.781Z,25.30
2023-07-02T17:36:00.771Z,25.60
2023-07-02T17:38:28.756Z,25.20
2023-07-02T17:40:56.735Z,25.80
2023-07-02T17:43:24.770Z,25.50
2023-07-02T17:45:57.776Z,25.20
2023-07-02T17:48:27.320Z,25.70
2023-07-02T17:50:57.265Z,25.30
2023-07-02T17:53:25.662Z,25.50
2023-07-02T17:55:53.866Z,25.40
2023-07-02T17:58:22.012Z,25.50
2023-07-02T18:00:50.724Z,25.50
2023-07-02T18:03:20.324Z,25.50
2023-07-02T18:05:49.202Z,25.30
2023-07-02T18:08:17.633Z,25.50
2023-07-02T18:10:49.666Z,25.40
2023-07-02T18:13:18.763Z,25.50
2023-07-02T18:15:47.529Z,25.20
2023-07-02T18:18:16.215Z,25.20
2023-07-02T18:20:47.700Z,25.40
2023-07-02T18:23:16.173Z,25.30
2023-07-02T18:25:44.413Z,25.30
2023-07-02T18:28:15.523Z,25.40
2023-07-02T18:30:47.754Z,25.40
2023-07-02T18:33:19.307Z,25.40
2023-07-02T18:35:48.895Z,25.40
2023-07-02T18:38:18.092Z,25.40
2023-07-02T18:40:48.999Z,25.60
2023-07-02T18:43:16.994Z,25.40
2023-07-02T18:45:52.981Z,25.70
2023-07-02T18:48:21.370Z,25.80
2023-07-02T18:50:51.161Z,25.50
2023-07-02T18:53:20.659Z,25.70
2023-07-02T18:56:00.560Z,25.70
2023-07-02T18:58:29.551Z,25.20
2023-07-02T19:00:58.184Z,25.50
2023-07-02T19:03:26.794Z,25.60
2023-07-02T19:05:56.288Z,25.30
2023-07-02T19:08:24.456Z,25.70
2023-07-02T19:11:01.999Z,25.40
2023-07-02T19:13:30.066Z,25.80
2023-07-02T19:15:58.119Z,25.60
2023-07-02T19:18:26.896Z,25.60
2023-07-02T19:21:00.258Z,25.50
2023-07-02T19:23:31.865Z,25.50
2023-07-02T19:26:00.175Z,25.40
2023-07-02T19:28:28.180Z,25.50
2023-07-02T19:30:57.735Z,25.30
2023-07-02T19:33:26.061Z,25.40
2023-07-02T19:35:54.451Z,25.60
2023-07-02T19:38:23.943Z,25.70
2023-07-02T19:40:55.991Z,25.40
2023-07-02T19:43:24.162Z,25.60
2023-07-02T19:45:52.737Z,25.50
2023-07-02T19:48:21.632Z,25.50
2023-07-02T19:50:59.734Z,25.50
2023-07-02T19:53:29.627Z,25.40
2023-07-02T19:55:59.073Z,25.20
2023-07-02T19:58:27.100Z,25.40
2023-07-02T20:00:55.345Z,25.10
2023-07-02T20:03:24.383Z,25.30
2023-07-02T20:05:55.773Z,25.30
2023-07-02T20:08:24.080Z,25.30
2023-07-02T20:10:53.992Z,25.40
2023-07-02T20:13:22.127Z,25.20
2023-07-02T20:15:52.616Z,25.40
2023-07-02T20:18:22.346Z,25.10
2023-07-02T20:20:54.207Z,25.10
2023-07-02T20:23:22.575Z,25.20
2023-07-02T20:25:50.812Z,25.30
2023-07-02T20:28:20.231Z,25.30
2023-07-02T20:30:48.331Z,24.90
2023-07-02T20:33:16.387Z,25.20
2023-07-02T20:35:45.176Z,25.30
2023-07-02T20:38:14.697Z,25.10
2023-07-02T20:40:42.717Z,25.00
2023-07-02T20:43:14.906Z,25.10
2023-07-02T20:45:44.648Z,25.10
2023-07-02T20:48:14.167Z,25.30
2023-07-02T20:50:42.406Z,25.50
2023-07-02T20:53:10.914Z,25.10
2023-07-02T20:55:38.898Z,25.20
2023-07-02T20:58:07.320Z,25.20
2023-07-02T21:00:35.371Z,25.10
2023-07-02T21:03:05.302Z,25.40
2023-07-02T21:05:33.354Z,25.20
2023-07-02T21:08:01.338Z,25.10
2023-07-02T21:10:29.488Z,25.00
2023-07-02T21:12:57.445Z,25.10
2023-07-02T21:15:25.448Z,25.10
2023-07-02T21:17:53.530Z,25.10
2023-07-02T21:20:23.001Z,25.10
2023-07-02T21:22:51.105Z,25.10
2023-07-02T21:25:19.302Z,25.10
2023-07-02T21:27:48.511Z,25.20
2023-07-02T21:30:17.426Z,25.30
2023-07-02T21:32:48.724Z,25.00
2023-07-02T21:35:16.975Z,24.80
2023-07-02T21:37:46.288Z,25.10
2023-07-02T21:40:14.416Z,25.10
2023-07-02T21:42:42.634Z,25.00
2023-07-02T21:45:11.994Z,24.70
2023-07-02T21:47:40.006Z,24.60
2023-07-02T21:50:09.470Z,25.10
2023-07-02T21:52:37.431Z,25.00
2023-07-02T21:55:08.366Z,24.90
2023-07-02T21:57:36.368Z,24.90
2023-07-02T22:00:11.220Z,24.60
2023-07-02T22:02:39.406Z,24.90
2023-07-02T22:05:08.640Z,25.10
2023-07-02T22:07:36.749Z,25.00
2023-07-02T22:10:10.422Z,24.90
2023-07-02T22:12:38.446Z,24.50
2023-07-02T22:15:07.995Z,24.80
2023-07-02T22:17:36.125Z,24.90
2023-07-02T22:20:12.045Z,24.70
2023-07-02T22:22:40.508Z,24.40
2023-07-02T22:25:12.633Z,24.90
2023-07-02T22:27:41.459Z,24.60
2023-07-02T22:30:13.699Z,24.80
2023-07-02T22:32:41.833Z,24.50
2023-07-02T22:35:11.247Z,24.50
2023-07-02T22:37:41.321Z,24.90
2023-07-02T22:40:13.918Z,24.80
2023-07-02T22:42:42.587Z,24.60
2023-07-02T22:45:13.487Z,24.70
2023-07-02T22:47:42.196Z,24.70
2023-07-02T22:50:13.103Z,24.80
2023-07-02T22:52:41.360Z,24.40
2023-07-02T22:55:11.550Z,24.80
2023-07-02T22:57:39.614Z,24.80
2023-07-02T23:00:14.212Z,24.50
2023-07-02T23:02:45.075Z,24.90
2023-07-02T23:05:14.317Z,24.70
2023-07-02T23:07:44.602Z,24.80
2023-07-02T23:10:16.228Z,24.40
2023-07-02T23:12:46.529Z,24.60
2023-07-02T23:15:16.776Z,24.60
2023-07-02T23:17:47.249Z,24.50
2023-07-02T23:20:16.340Z,24.40
2023-07-02T23:22:45.622Z,24.40
2023-07-02T23:25:18.807Z,24.60
2023-07-02T23:27:47.725Z,24.70
2023-07-02T23:30:19.213Z,24.50
2023-07-02T23:32:49.576Z,24.90
2023-07-02T23:35:18.034Z,24.30
2023-07-02T23:37:46.923Z,24.40
2023-07-02T23:40:17.258Z,24.70
2023-07-02T23:42:46.602Z,24.50
2023-07-02T23:45:15.647Z,24.40
2023-07-02T23:47:44.350Z,24.40
2023-07-02T23:50:15.264Z,24.40
2023-07-02T23:52:43.281Z,24.50
2023-07-02T23:55:13.476Z,24.60
2023-07-02T23:57:43.255Z,24.40
